sensor_id;sensor_type;location;lat;lon;timestamp;temperature;humidity
7876;DHT22;69649;53.712;9.680;2023-12-29T00:01:14;8.20;81.60
7876;DHT22;69649;53.712;9.680;2023-12-29T00:03:40;8.10;81.70
7876;DHT22;69649;53.712;9.680;2023-12-29T00:06:06;8.10;81.70
7876;DHT22;69649;53.712;9.680;2023-12-29T00:08:32;8.10;81.90
7876;DHT22;69649;53.712;9.680;2023-12-29T00:10:59;8.10;82.20
7876;DHT22;69649;53.712;9.680;2023-12-29T00:13:25;8.10;82.30
7876;DHT22;69649;53.712;9.680;2023-12-29T00:15:55;8.10;82.40
7876;DHT22;69649;53.712;9.680;2023-12-29T00:18:21;8.20;82.30
7876;DHT22;69649;53.712;9.680;2023-12-29T00:20:48;8.10;82.30
7876;DHT22;69649;53.712;9.680;2023-12-29T00:23:13;8.10;82.40
7876;DHT22;69649;53.712;9.680;2023-12-29T00:25:39;8.10;82.50
7876;DHT22;69649;53.712;9.680;2023-12-29T00:28:06;8.10;82.60
7876;DHT22;69649;53.712;9.680;2023-12-29T00:30:31;8.10;82.60
7876;DHT22;69649;53.712;9.680;2023-12-29T00:32:57;8.10;82.60
7876;DHT22;69649;53.712;9.680;2023-12-29T00:35:23;8.10;82.60
7876;DHT22;69649;53.712;9.680;2023-12-29T00:37:51;8.10;82.30
7876;DHT22;69649;53.712;9.680;2023-12-29T00:40:17;8.10;82.50
7876;DHT22;69649;53.712;9.680;2023-12-29T00:42:43;8.10;82.50
7876;DHT22;69649;53.712;9.680;2023-12-29T00:45:09;8.10;82.20
7876;DHT22;69649;53.712;9.680;2023-12-29T00:47:35;8.10;81.70
7876;DHT22;69649;53.712;9.680;2023-12-29T00:50:01;8.20;82.00
7876;DHT22;69649;53.712;9.680;2023-12-29T00:52:27;8.20;82.10
7876;DHT22;69649;53.712;9.680;2023-12-29T00:54:53;8.20;82.30
7876;DHT22;69649;53.712;9.680;2023-12-29T00:57:19;8.20;82.00
7876;DHT22;69649;53.712;9.680;2023-12-29T00:59:46;8.20;82.00
7876;DHT22;69649;53.712;9.680;2023-12-29T01:02:12;8.30;81.90
7876;DHT22;69649;53.712;9.680;2023-12-29T01:04:38;8.30;81.80
7876;DHT22;69649;53.712;9.680;2023-12-29T01:07:06;8.30;81.80
7876;DHT22;69649;53.712;9.680;2023-12-29T01:09:32;8.30;81.80
7876;DHT22;69649;53.712;9.680;2023-12-29T01:11:57;8.30;81.80
7876;DHT22;69649;53.712;9.680;2023-12-29T01:14:23;8.30;81.60
7876;DHT22;69649;53.712;9.680;2023-12-29T01:16:49;8.30;81.40
7876;DHT22;69649;53.712;9.680;2023-12-29T01:19:14;8.30;81.40
7876;DHT22;69649;53.712;9.680;2023-12-29T01:21:40;8.40;81.10
7876;DHT22;69649;53.712;9.680;2023-12-29T01:24:06;8.40;80.50
7876;DHT22;69649;53.712;9.680;2023-12-29T01:26:39;8.50;80.50
7876;DHT22;69649;53.712;9.680;2023-12-29T01:29:05;8.60;80.50
7876;DHT22;69649;53.712;9.680;2023-12-29T01:31:31;8.50;80.20
7876;DHT22;69649;53.712;9.680;2023-12-29T01:33:58;8.50;80.00
7876;DHT22;69649;53.712;9.680;2023-12-29T01:36:24;8.50;80.00
7876;DHT22;69649;53.712;9.680;2023-12-29T01:38:50;8.50;80.00
7876;DHT22;69649;53.712;9.680;2023-12-29T01:41:15;8.50;80.10
7876;DHT22;69649;53.712;9.680;2023-12-29T01:46:32;8.50;80.10
7876;DHT22;69649;53.712;9.680;2023-12-29T01:48:58;8.50;79.80
7876;DHT22;69649;53.712;9.680;2023-12-29T01:51:25;8.50;80.00
7876;DHT22;69649;53.712;9.680;2023-12-29T01:53:52;8.50;80.10
7876;DHT22;69649;53.712;9.680;2023-12-29T01:56:20;8.40;80.20
7876;DHT22;69649;53.712;9.680;2023-12-29T01:58:49;8.50;80.20
7876;DHT22;69649;53.712;9.680;2023-12-29T02:01:16;8.50;80.00
7876;DHT22;69649;53.712;9.680;2023-12-29T02:03:44;8.60;79.80
7876;DHT22;69649;53.712;9.680;2023-12-29T02:06:10;8.60;79.70
7876;DHT22;69649;53.712;9.680;2023-12-29T02:08:40;8.60;79.20
7876;DHT22;69649;53.712;9.680;2023-12-29T02:11:07;8.70;78.90
7876;DHT22;69649;53.712;9.680;2023-12-29T02:13:32;8.70;78.70
7876;DHT22;69649;53.712;9.680;2023-12-29T02:16:02;8.70;78.30
7876;DHT22;69649;53.712;9.680;2023-12-29T02:18:48;8.80;77.80
7876;DHT22;69649;53.712;9.680;2023-12-29T02:21:15;8.90;77.50
7876;DHT22;69649;53.712;9.680;2023-12-29T02:23:41;8.90;77.50
7876;DHT22;69649;53.712;9.680;2023-12-29T02:26:11;9.00;77.30
7876;DHT22;69649;53.712;9.680;2023-12-29T02:28:43;9.00;76.80
7876;DHT22;69649;53.712;9.680;2023-12-29T02:31:14;9.00;76.70
7876;DHT22;69649;53.712;9.680;2023-12-29T02:33:43;9.00;76.90
7876;DHT22;69649;53.712;9.680;2023-12-29T02:36:10;9.00;76.90
7876;DHT22;69649;53.712;9.680;2023-12-29T02:38:38;9.00;76.70
7876;DHT22;69649;53.712;9.680;2023-12-29T02:41:05;9.10;75.80
7876;DHT22;69649;53.712;9.680;2023-12-29T02:43:31;9.10;75.80
7876;DHT22;69649;53.712;9.680;2023-12-29T02:45:57;9.10;75.80
7876;DHT22;69649;53.712;9.680;2023-12-29T02:48:23;9.00;75.50
7876;DHT22;69649;53.712;9.680;2023-12-29T02:50:48;9.00;76.00
7876;DHT22;69649;53.712;9.680;2023-12-29T02:53:14;8.90;78.00
7876;DHT22;69649;53.712;9.680;2023-12-29T02:55:40;8.80;79.10
7876;DHT22;69649;53.712;9.680;2023-12-29T02:58:05;8.60;79.80
7876;DHT22;69649;53.712;9.680;2023-12-29T03:00:31;8.50;80.50
7876;DHT22;69649;53.712;9.680;2023-12-29T03:02:57;8.20;79.20
7876;DHT22;69649;53.712;9.680;2023-12-29T03:05:22;7.80;78.70
7876;DHT22;69649;53.712;9.680;2023-12-29T03:07:49;7.50;79.60
7876;DHT22;69649;53.712;9.680;2023-12-29T03:10:15;7.50;80.40
7876;DHT22;69649;53.712;9.680;2023-12-29T03:12:41;7.40;81.40
7876;DHT22;69649;53.712;9.680;2023-12-29T03:15:07;7.30;81.80
7876;DHT22;69649;53.712;9.680;2023-12-29T03:17:32;7.20;82.00
7876;DHT22;69649;53.712;9.680;2023-12-29T03:19:58;7.20;82.10
7876;DHT22;69649;53.712;9.680;2023-12-29T03:22:24;7.30;82.30
7876;DHT22;69649;53.712;9.680;2023-12-29T03:24:50;7.40;82.60
7876;DHT22;69649;53.712;9.680;2023-12-29T03:27:15;7.50;82.50
7876;DHT22;69649;53.712;9.680;2023-12-29T03:29:41;7.50;82.30
7876;DHT22;69649;53.712;9.680;2023-12-29T03:32:07;7.60;81.80
7876;DHT22;69649;53.712;9.680;2023-12-29T03:34:33;7.80;81.50
7876;DHT22;69649;53.712;9.680;2023-12-29T03:36:58;7.90;81.00
7876;DHT22;69649;53.712;9.680;2023-12-29T03:39:24;8.00;80.90
7876;DHT22;69649;53.712;9.680;2023-12-29T03:41:50;8.00;80.80
7876;DHT22;69649;53.712;9.680;2023-12-29T03:44:16;8.10;80.80
7876;DHT22;69649;53.712;9.680;2023-12-29T03:46:43;8.10;80.40
7876;DHT22;69649;53.712;9.680;2023-12-29T03:49:09;8.20;80.00
7876;DHT22;69649;53.712;9.680;2023-12-29T03:51:35;8.30;79.60
7876;DHT22;69649;53.712;9.680;2023-12-29T03:54:00;8.30;79.00
7876;DHT22;69649;53.712;9.680;2023-12-29T03:56:26;8.40;78.80
7876;DHT22;69649;53.712;9.680;2023-12-29T03:58:52;8.50;78.90
7876;DHT22;69649;53.712;9.680;2023-12-29T04:01:18;8.50;78.50
7876;DHT22;69649;53.712;9.680;2023-12-29T04:03:45;8.50;78.70
7876;DHT22;69649;53.712;9.680;2023-12-29T04:06:11;8.40;78.70
7876;DHT22;69649;53.712;9.680;2023-12-29T04:08:37;8.40;78.60
7876;DHT22;69649;53.712;9.680;2023-12-29T04:11:04;8.40;77.80
7876;DHT22;69649;53.712;9.680;2023-12-29T04:13:31;8.40;75.30
7876;DHT22;69649;53.712;9.680;2023-12-29T04:15:57;8.30;73.00
7876;DHT22;69649;53.712;9.680;2023-12-29T04:18:23;8.00;73.00
7876;DHT22;69649;53.712;9.680;2023-12-29T04:20:50;7.60;74.00
7876;DHT22;69649;53.712;9.680;2023-12-29T04:23:16;7.50;73.90
7876;DHT22;69649;53.712;9.680;2023-12-29T04:25:42;7.40;73.10
7876;DHT22;69649;53.712;9.680;2023-12-29T04:28:08;7.30;74.20
7876;DHT22;69649;53.712;9.680;2023-12-29T04:30:34;7.20;73.30
7876;DHT22;69649;53.712;9.680;2023-12-29T04:33:00;7.20;72.90
7876;DHT22;69649;53.712;9.680;2023-12-29T04:35:26;7.20;73.00
7876;DHT22;69649;53.712;9.680;2023-12-29T04:37:52;7.20;73.70
7876;DHT22;69649;53.712;9.680;2023-12-29T04:40:18;7.10;73.60
7876;DHT22;69649;53.712;9.680;2023-12-29T04:42:44;7.00;73.50
7876;DHT22;69649;53.712;9.680;2023-12-29T04:45:10;7.00;73.70
7876;DHT22;69649;53.712;9.680;2023-12-29T04:47:37;7.00;73.90
7876;DHT22;69649;53.712;9.680;2023-12-29T04:50:04;7.00;73.90
7876;DHT22;69649;53.712;9.680;2023-12-29T04:52:31;6.90;74.00
7876;DHT22;69649;53.712;9.680;2023-12-29T04:54:57;7.00;74.00
7876;DHT22;69649;53.712;9.680;2023-12-29T04:57:23;6.90;74.40
7876;DHT22;69649;53.712;9.680;2023-12-29T04:59:49;6.90;74.40
7876;DHT22;69649;53.712;9.680;2023-12-29T05:02:15;6.90;75.00
7876;DHT22;69649;53.712;9.680;2023-12-29T05:04:40;7.00;74.70
7876;DHT22;69649;53.712;9.680;2023-12-29T05:07:08;7.00;74.90
7876;DHT22;69649;53.712;9.680;2023-12-29T05:09:34;7.10;75.30
7876;DHT22;69649;53.712;9.680;2023-12-29T05:11:59;7.20;75.80
7876;DHT22;69649;53.712;9.680;2023-12-29T05:14:25;7.10;76.20
7876;DHT22;69649;53.712;9.680;2023-12-29T05:16:51;7.10;76.50
7876;DHT22;69649;53.712;9.680;2023-12-29T05:19:17;7.20;76.70
7876;DHT22;69649;53.712;9.680;2023-12-29T05:21:42;7.10;76.90
7876;DHT22;69649;53.712;9.680;2023-12-29T05:24:08;7.10;77.20
7876;DHT22;69649;53.712;9.680;2023-12-29T05:26:34;7.10;77.40
7876;DHT22;69649;53.712;9.680;2023-12-29T05:28:59;7.10;77.30
7876;DHT22;69649;53.712;9.680;2023-12-29T05:31:25;7.10;77.20
7876;DHT22;69649;53.712;9.680;2023-12-29T05:33:51;7.00;77.30
7876;DHT22;69649;53.712;9.680;2023-12-29T05:36:17;7.00;77.30
7876;DHT22;69649;53.712;9.680;2023-12-29T05:38:45;7.10;77.20
7876;DHT22;69649;53.712;9.680;2023-12-29T05:41:15;7.10;77.30
7876;DHT22;69649;53.712;9.680;2023-12-29T05:43:41;7.10;77.40
7876;DHT22;69649;53.712;9.680;2023-12-29T05:46:10;7.10;77.80
7876;DHT22;69649;53.712;9.680;2023-12-29T05:48:40;7.20;77.90
7876;DHT22;69649;53.712;9.680;2023-12-29T05:51:10;7.20;77.90
7876;DHT22;69649;53.712;9.680;2023-12-29T05:53:39;7.20;78.00
7876;DHT22;69649;53.712;9.680;2023-12-29T05:56:05;7.20;77.80
7876;DHT22;69649;53.712;9.680;2023-12-29T05:58:31;7.20;78.10
7876;DHT22;69649;53.712;9.680;2023-12-29T06:00:57;7.20;78.30
7876;DHT22;69649;53.712;9.680;2023-12-29T06:03:25;7.20;78.40
7876;DHT22;69649;53.712;9.680;2023-12-29T06:05:51;7.20;78.50
7876;DHT22;69649;53.712;9.680;2023-12-29T06:08:16;7.10;78.70
7876;DHT22;69649;53.712;9.680;2023-12-29T06:10:42;7.00;78.90
7876;DHT22;69649;53.712;9.680;2023-12-29T06:13:08;7.10;78.80
7876;DHT22;69649;53.712;9.680;2023-12-29T06:15:34;7.10;78.70
7876;DHT22;69649;53.712;9.680;2023-12-29T06:18:02;7.00;79.10
7876;DHT22;69649;53.712;9.680;2023-12-29T06:20:28;7.00;79.20
7876;DHT22;69649;53.712;9.680;2023-12-29T06:22:55;7.00;79.40
7876;DHT22;69649;53.712;9.680;2023-12-29T06:25:21;7.00;79.50
7876;DHT22;69649;53.712;9.680;2023-12-29T06:27:47;7.00;79.40
7876;DHT22;69649;53.712;9.680;2023-12-29T06:30:14;7.00;79.30
7876;DHT22;69649;53.712;9.680;2023-12-29T06:32:40;7.00;79.40
7876;DHT22;69649;53.712;9.680;2023-12-29T06:35:07;7.00;79.40
7876;DHT22;69649;53.712;9.680;2023-12-29T06:37:36;7.20;79.20
7876;DHT22;69649;53.712;9.680;2023-12-29T06:40:02;7.20;79.10
7876;DHT22;69649;53.712;9.680;2023-12-29T06:42:29;7.20;79.20
7876;DHT22;69649;53.712;9.680;2023-12-29T06:44:55;7.20;79.20
7876;DHT22;69649;53.712;9.680;2023-12-29T06:47:20;7.40;79.10
7876;DHT22;69649;53.712;9.680;2023-12-29T06:49:46;7.40;79.10
7876;DHT22;69649;53.712;9.680;2023-12-29T06:52:12;7.40;79.00
7876;DHT22;69649;53.712;9.680;2023-12-29T06:54:37;7.40;79.10
7876;DHT22;69649;53.712;9.680;2023-12-29T06:57:04;7.40;79.10
7876;DHT22;69649;53.712;9.680;2023-12-29T06:59:29;7.50;79.00
7876;DHT22;69649;53.712;9.680;2023-12-29T07:01:55;7.50;78.70
7876;DHT22;69649;53.712;9.680;2023-12-29T07:04:21;7.60;78.30
7876;DHT22;69649;53.712;9.680;2023-12-29T07:06:47;7.60;78.00
7876;DHT22;69649;53.712;9.680;2023-12-29T07:09:12;7.70;77.60
7876;DHT22;69649;53.712;9.680;2023-12-29T07:11:38;7.80;77.40
7876;DHT22;69649;53.712;9.680;2023-12-29T07:14:04;7.80;77.00
7876;DHT22;69649;53.712;9.680;2023-12-29T07:16:30;7.80;76.90
7876;DHT22;69649;53.712;9.680;2023-12-29T07:18:56;7.90;76.90
7876;DHT22;69649;53.712;9.680;2023-12-29T07:21:22;8.00;76.60
7876;DHT22;69649;53.712;9.680;2023-12-29T07:23:48;7.90;76.50
7876;DHT22;69649;53.712;9.680;2023-12-29T07:26:13;8.00;76.20
7876;DHT22;69649;53.712;9.680;2023-12-29T07:28:39;8.00;76.20
7876;DHT22;69649;53.712;9.680;2023-12-29T07:31:05;8.00;76.00
7876;DHT22;69649;53.712;9.680;2023-12-29T07:33:31;8.00;75.90
7876;DHT22;69649;53.712;9.680;2023-12-29T07:35:56;8.10;75.90
7876;DHT22;69649;53.712;9.680;2023-12-29T07:38:23;8.10;75.60
7876;DHT22;69649;53.712;9.680;2023-12-29T07:40:50;8.10;75.50
7876;DHT22;69649;53.712;9.680;2023-12-29T07:43:15;8.20;75.50
7876;DHT22;69649;53.712;9.680;2023-12-29T07:45:41;8.20;75.20
7876;DHT22;69649;53.712;9.680;2023-12-29T07:48:09;8.20;75.00
7876;DHT22;69649;53.712;9.680;2023-12-29T07:50:34;8.30;74.70
7876;DHT22;69649;53.712;9.680;2023-12-29T07:53:00;8.30;74.50
7876;DHT22;69649;53.712;9.680;2023-12-29T07:55:31;8.30;74.40
7876;DHT22;69649;53.712;9.680;2023-12-29T07:57:57;8.30;74.20
7876;DHT22;69649;53.712;9.680;2023-12-29T08:00:23;8.40;74.00
7876;DHT22;69649;53.712;9.680;2023-12-29T08:02:49;8.40;73.60
7876;DHT22;69649;53.712;9.680;2023-12-29T08:05:15;8.40;73.30
7876;DHT22;69649;53.712;9.680;2023-12-29T08:07:42;8.40;73.20
7876;DHT22;69649;53.712;9.680;2023-12-29T08:10:09;8.40;73.00
7876;DHT22;69649;53.712;9.680;2023-12-29T08:12:35;8.50;73.10
7876;DHT22;69649;53.712;9.680;2023-12-29T08:15:02;8.50;72.50
7876;DHT22;69649;53.712;9.680;2023-12-29T08:17:28;8.50;72.40
7876;DHT22;69649;53.712;9.680;2023-12-29T08:19:54;8.50;72.10
7876;DHT22;69649;53.712;9.680;2023-12-29T08:22:21;8.50;72.30
7876;DHT22;69649;53.712;9.680;2023-12-29T08:24:46;8.50;72.10
7876;DHT22;69649;53.712;9.680;2023-12-29T08:27:13;8.50;72.00
7876;DHT22;69649;53.712;9.680;2023-12-29T08:29:39;8.60;72.10
7876;DHT22;69649;53.712;9.680;2023-12-29T08:32:06;8.60;71.70
7876;DHT22;69649;53.712;9.680;2023-12-29T08:34:31;8.60;71.80
7876;DHT22;69649;53.712;9.680;2023-12-29T08:36:57;8.60;71.30
7876;DHT22;69649;53.712;9.680;2023-12-29T08:39:23;8.60;70.90
7876;DHT22;69649;53.712;9.680;2023-12-29T08:41:49;8.70;71.10
7876;DHT22;69649;53.712;9.680;2023-12-29T08:44:16;8.80;70.80
7876;DHT22;69649;53.712;9.680;2023-12-29T08:46:42;8.80;70.80
7876;DHT22;69649;53.712;9.680;2023-12-29T08:49:07;8.80;71.10
7876;DHT22;69649;53.712;9.680;2023-12-29T08:51:33;8.80;72.20
7876;DHT22;69649;53.712;9.680;2023-12-29T08:53:59;8.60;72.90
7876;DHT22;69649;53.712;9.680;2023-12-29T08:56:25;8.10;74.90
7876;DHT22;69649;53.712;9.680;2023-12-29T08:58:51;7.60;76.10
7876;DHT22;69649;53.712;9.680;2023-12-29T09:01:18;7.50;77.40
7876;DHT22;69649;53.712;9.680;2023-12-29T09:03:44;7.20;78.60
7876;DHT22;69649;53.712;9.680;2023-12-29T09:06:10;7.00;79.50
7876;DHT22;69649;53.712;9.680;2023-12-29T09:08:36;6.90;80.30
7876;DHT22;69649;53.712;9.680;2023-12-29T09:11:02;6.90;80.80
7876;DHT22;69649;53.712;9.680;2023-12-29T09:13:28;6.80;80.90
7876;DHT22;69649;53.712;9.680;2023-12-29T09:15:54;6.70;81.00
7876;DHT22;69649;53.712;9.680;2023-12-29T09:18:20;6.70;81.00
7876;DHT22;69649;53.712;9.680;2023-12-29T09:20:46;6.70;81.10
7876;DHT22;69649;53.712;9.680;2023-12-29T09:23:13;6.60;81.20
7876;DHT22;69649;53.712;9.680;2023-12-29T09:25:40;6.60;81.20
7876;DHT22;69649;53.712;9.680;2023-12-29T09:28:05;6.60;81.20
7876;DHT22;69649;53.712;9.680;2023-12-29T09:30:31;6.50;81.00
7876;DHT22;69649;53.712;9.680;2023-12-29T09:32:57;6.50;81.30
7876;DHT22;69649;53.712;9.680;2023-12-29T09:35:23;6.50;81.50
7876;DHT22;69649;53.712;9.680;2023-12-29T09:37:49;6.50;81.50
7876;DHT22;69649;53.712;9.680;2023-12-29T09:40:15;6.50;81.50
7876;DHT22;69649;53.712;9.680;2023-12-29T09:42:43;6.50;81.30
7876;DHT22;69649;53.712;9.680;2023-12-29T09:45:11;6.50;81.30
7876;DHT22;69649;53.712;9.680;2023-12-29T09:47:43;6.40;81.40
7876;DHT22;69649;53.712;9.680;2023-12-29T09:53:02;6.50;81.00
7876;DHT22;69649;53.712;9.680;2023-12-29T09:55:28;6.70;80.50
7876;DHT22;69649;53.712;9.680;2023-12-29T09:57:55;6.70;80.50
7876;DHT22;69649;53.712;9.680;2023-12-29T10:00:21;6.80;80.20
7876;DHT22;69649;53.712;9.680;2023-12-29T10:02:51;6.90;80.10
7876;DHT22;69649;53.712;9.680;2023-12-29T10:05:17;7.00;79.80
7876;DHT22;69649;53.712;9.680;2023-12-29T10:07:45;7.20;79.80
7876;DHT22;69649;53.712;9.680;2023-12-29T10:10:14;7.20;79.10
7876;DHT22;69649;53.712;9.680;2023-12-29T10:12:41;7.40;78.40
7876;DHT22;69649;53.712;9.680;2023-12-29T10:15:22;7.50;78.10
7876;DHT22;69649;53.712;9.680;2023-12-29T10:23:23;7.80;76.80
7876;DHT22;69649;53.712;9.680;2023-12-29T10:25:49;7.80;76.20
7876;DHT22;69649;53.712;9.680;2023-12-29T10:28:16;7.90;75.80
7876;DHT22;69649;53.712;9.680;2023-12-29T10:30:43;8.00;75.30
7876;DHT22;69649;53.712;9.680;2023-12-29T10:33:09;8.10;75.50
7876;DHT22;69649;53.712;9.680;2023-12-29T10:35:36;8.20;74.80
7876;DHT22;69649;53.712;9.680;2023-12-29T10:41:13;8.30;74.80
7876;DHT22;69649;53.712;9.680;2023-12-29T10:43:40;8.40;74.80
7876;DHT22;69649;53.712;9.680;2023-12-29T10:46:08;8.40;74.50
7876;DHT22;69649;53.712;9.680;2023-12-29T10:48:34;8.40;74.10
7876;DHT22;69649;53.712;9.680;2023-12-29T10:51:01;8.40;74.20
7876;DHT22;69649;53.712;9.680;2023-12-29T10:53:36;8.50;73.50
7876;DHT22;69649;53.712;9.680;2023-12-29T10:56:03;8.50;73.80
7876;DHT22;69649;53.712;9.680;2023-12-29T10:58:29;8.60;73.80
7876;DHT22;69649;53.712;9.680;2023-12-29T11:00:56;8.60;73.70
7876;DHT22;69649;53.712;9.680;2023-12-29T11:03:22;8.60;73.30
7876;DHT22;69649;53.712;9.680;2023-12-29T11:05:48;8.60;73.30
7876;DHT22;69649;53.712;9.680;2023-12-29T11:08:21;8.60;73.30
7876;DHT22;69649;53.712;9.680;2023-12-29T11:10:48;8.60;73.40
7876;DHT22;69649;53.712;9.680;2023-12-29T11:13:14;8.60;73.60
7876;DHT22;69649;53.712;9.680;2023-12-29T11:15:44;8.60;73.70
7876;DHT22;69649;53.712;9.680;2023-12-29T11:18:13;8.60;73.60
7876;DHT22;69649;53.712;9.680;2023-12-29T11:20:41;8.60;73.70
7876;DHT22;69649;53.712;9.680;2023-12-29T11:23:09;8.60;73.50
7876;DHT22;69649;53.712;9.680;2023-12-29T11:25:35;8.80;73.50
7876;DHT22;69649;53.712;9.680;2023-12-29T11:28:01;8.90;73.40
7876;DHT22;69649;53.712;9.680;2023-12-29T11:30:27;8.90;73.20
7876;DHT22;69649;53.712;9.680;2023-12-29T11:35:47;8.80;73.50
7876;DHT22;69649;53.712;9.680;2023-12-29T11:43:59;8.80;73.90
7876;DHT22;69649;53.712;9.680;2023-12-29T11:46:43;8.80;74.00
7876;DHT22;69649;53.712;9.680;2023-12-29T11:49:09;8.80;73.70
7876;DHT22;69649;53.712;9.680;2023-12-29T11:51:38;8.90;73.90
7876;DHT22;69649;53.712;9.680;2023-12-29T11:54:04;9.00;73.40
7876;DHT22;69649;53.712;9.680;2023-12-29T11:56:31;8.90;72.70
7876;DHT22;69649;53.712;9.680;2023-12-29T11:59:12;8.90;73.20
7876;DHT22;69649;53.712;9.680;2023-12-29T12:01:38;9.00;72.80
7876;DHT22;69649;53.712;9.680;2023-12-29T12:04:04;9.00;72.70
7876;DHT22;69649;53.712;9.680;2023-12-29T12:06:37;9.00;72.80
7876;DHT22;69649;53.712;9.680;2023-12-29T12:09:16;9.10;72.20
7876;DHT22;69649;53.712;9.680;2023-12-29T12:11:43;9.20;72.30
7876;DHT22;69649;53.712;9.680;2023-12-29T12:14:09;9.40;71.70
7876;DHT22;69649;53.712;9.680;2023-12-29T12:16:49;9.40;71.40
7876;DHT22;69649;53.712;9.680;2023-12-29T12:19:16;9.50;71.50
7876;DHT22;69649;53.712;9.680;2023-12-29T12:21:47;9.50;70.80
7876;DHT22;69649;53.712;9.680;2023-12-29T12:24:21;9.70;70.50
7876;DHT22;69649;53.712;9.680;2023-12-29T12:26:47;9.80;69.70
7876;DHT22;69649;53.712;9.680;2023-12-29T12:29:13;9.70;70.30
7876;DHT22;69649;53.712;9.680;2023-12-29T12:31:56;9.80;70.00
7876;DHT22;69649;53.712;9.680;2023-12-29T12:34:22;10.00;69.80
7876;DHT22;69649;53.712;9.680;2023-12-29T12:36:49;10.10;70.00
7876;DHT22;69649;53.712;9.680;2023-12-29T12:39:16;10.20;71.10
7876;DHT22;69649;53.712;9.680;2023-12-29T12:41:41;10.40;69.50
7876;DHT22;69649;53.712;9.680;2023-12-29T12:44:12;10.60;68.90
7876;DHT22;69649;53.712;9.680;2023-12-29T12:49:17;10.50;67.90
7876;DHT22;69649;53.712;9.680;2023-12-29T12:51:43;10.40;68.20
7876;DHT22;69649;53.712;9.680;2023-12-29T12:54:10;10.20;68.50
7876;DHT22;69649;53.712;9.680;2023-12-29T12:56:37;10.10;68.60
7876;DHT22;69649;53.712;9.680;2023-12-29T12:59:03;9.80;67.40
7876;DHT22;69649;53.712;9.680;2023-12-29T13:01:34;9.70;68.40
7876;DHT22;69649;53.712;9.680;2023-12-29T13:03:59;9.60;69.70
7876;DHT22;69649;53.712;9.680;2023-12-29T13:06:25;9.60;69.80
7876;DHT22;69649;53.712;9.680;2023-12-29T13:08:52;9.70;70.20
7876;DHT22;69649;53.712;9.680;2023-12-29T13:11:19;9.80;70.00
7876;DHT22;69649;53.712;9.680;2023-12-29T13:13:50;9.80;68.10
7876;DHT22;69649;53.712;9.680;2023-12-29T13:16:16;9.70;68.00
7876;DHT22;69649;53.712;9.680;2023-12-29T13:18:42;9.60;68.00
7876;DHT22;69649;53.712;9.680;2023-12-29T13:21:08;9.60;67.90
7876;DHT22;69649;53.712;9.680;2023-12-29T13:23:35;9.60;68.00
7876;DHT22;69649;53.712;9.680;2023-12-29T13:26:09;9.50;68.00
7876;DHT22;69649;53.712;9.680;2023-12-29T13:28:36;9.70;68.00
7876;DHT22;69649;53.712;9.680;2023-12-29T13:31:03;10.00;67.20
7876;DHT22;69649;53.712;9.680;2023-12-29T13:33:38;10.20;67.20
7876;DHT22;69649;53.712;9.680;2023-12-29T13:36:18;10.30;66.40
7876;DHT22;69649;53.712;9.680;2023-12-29T13:38:49;10.30;65.40
7876;DHT22;69649;53.712;9.680;2023-12-29T13:41:14;10.40;65.70
7876;DHT22;69649;53.712;9.680;2023-12-29T13:43:42;10.30;65.10
7876;DHT22;69649;53.712;9.680;2023-12-29T13:46:11;10.20;63.00
7876;DHT22;69649;53.712;9.680;2023-12-29T13:48:37;10.10;62.40
7876;DHT22;69649;53.712;9.680;2023-12-29T13:51:05;10.00;62.80
7876;DHT22;69649;53.712;9.680;2023-12-29T13:53:32;10.00;62.80
7876;DHT22;69649;53.712;9.680;2023-12-29T13:56:10;10.00;63.00
7876;DHT22;69649;53.712;9.680;2023-12-29T13:58:37;9.80;63.30
7876;DHT22;69649;53.712;9.680;2023-12-29T14:01:08;9.70;63.10
7876;DHT22;69649;53.712;9.680;2023-12-29T14:03:46;9.60;63.60
7876;DHT22;69649;53.712;9.680;2023-12-29T14:06:14;9.50;64.00
7876;DHT22;69649;53.712;9.680;2023-12-29T14:08:43;9.40;63.80
7876;DHT22;69649;53.712;9.680;2023-12-29T14:11:09;9.40;63.90
7876;DHT22;69649;53.712;9.680;2023-12-29T14:13:35;9.20;64.00
7876;DHT22;69649;53.712;9.680;2023-12-29T14:16:03;9.20;64.60
7876;DHT22;69649;53.712;9.680;2023-12-29T14:21:30;9.00;64.70
7876;DHT22;69649;53.712;9.680;2023-12-29T14:24:13;8.90;65.20
7876;DHT22;69649;53.712;9.680;2023-12-29T14:26:43;8.80;65.40
7876;DHT22;69649;53.712;9.680;2023-12-29T14:29:12;8.60;65.60
7876;DHT22;69649;53.712;9.680;2023-12-29T14:31:42;8.60;66.30
7876;DHT22;69649;53.712;9.680;2023-12-29T14:34:08;8.60;66.40
7876;DHT22;69649;53.712;9.680;2023-12-29T14:36:36;8.60;66.60
7876;DHT22;69649;53.712;9.680;2023-12-29T14:39:03;8.60;66.90
7876;DHT22;69649;53.712;9.680;2023-12-29T14:41:30;8.60;67.10
7876;DHT22;69649;53.712;9.680;2023-12-29T14:43:56;8.50;67.20
7876;DHT22;69649;53.712;9.680;2023-12-29T14:46:22;8.40;67.30
7876;DHT22;69649;53.712;9.680;2023-12-29T14:48:48;8.40;67.60
7876;DHT22;69649;53.712;9.680;2023-12-29T14:51:14;8.40;67.60
7876;DHT22;69649;53.712;9.680;2023-12-29T14:53:45;8.30;68.40
7876;DHT22;69649;53.712;9.680;2023-12-29T14:56:13;8.30;68.50
7876;DHT22;69649;53.712;9.680;2023-12-29T14:58:39;8.20;68.70
7876;DHT22;69649;53.712;9.680;2023-12-29T15:01:06;8.10;68.60
7876;DHT22;69649;53.712;9.680;2023-12-29T15:03:33;8.00;67.80
7876;DHT22;69649;53.712;9.680;2023-12-29T15:06:00;8.00;67.30
7876;DHT22;69649;53.712;9.680;2023-12-29T15:08:26;8.00;65.90
7876;DHT22;69649;53.712;9.680;2023-12-29T15:10:54;8.00;65.30
7876;DHT22;69649;53.712;9.680;2023-12-29T15:13:20;8.10;64.60
7876;DHT22;69649;53.712;9.680;2023-12-29T15:15:46;8.10;64.80
7876;DHT22;69649;53.712;9.680;2023-12-29T15:18:12;8.10;65.20
7876;DHT22;69649;53.712;9.680;2023-12-29T15:20:37;8.10;65.00
7876;DHT22;69649;53.712;9.680;2023-12-29T15:23:03;8.10;65.00
7876;DHT22;69649;53.712;9.680;2023-12-29T15:25:29;8.10;65.20
7876;DHT22;69649;53.712;9.680;2023-12-29T15:27:55;8.00;65.40
7876;DHT22;69649;53.712;9.680;2023-12-29T15:30:20;8.00;65.30
7876;DHT22;69649;53.712;9.680;2023-12-29T15:32:46;8.00;65.20
7876;DHT22;69649;53.712;9.680;2023-12-29T15:35:12;8.00;65.40
7876;DHT22;69649;53.712;9.680;2023-12-29T15:37:38;7.90;65.80
7876;DHT22;69649;53.712;9.680;2023-12-29T15:40:04;7.90;65.50
7876;DHT22;69649;53.712;9.680;2023-12-29T15:42:30;7.80;65.90
7876;DHT22;69649;53.712;9.680;2023-12-29T15:44:56;7.80;66.30
7876;DHT22;69649;53.712;9.680;2023-12-29T15:47:22;7.80;66.30
7876;DHT22;69649;53.712;9.680;2023-12-29T15:49:48;7.80;66.20
7876;DHT22;69649;53.712;9.680;2023-12-29T15:52:14;7.80;66.10
7876;DHT22;69649;53.712;9.680;2023-12-29T15:54:39;7.80;65.40
7876;DHT22;69649;53.712;9.680;2023-12-29T15:57:05;7.80;65.00
7876;DHT22;69649;53.712;9.680;2023-12-29T15:59:35;7.90;65.10
7876;DHT22;69649;53.712;9.680;2023-12-29T16:02:01;8.00;64.90
7876;DHT22;69649;53.712;9.680;2023-12-29T16:04:27;7.90;65.10
7876;DHT22;69649;53.712;9.680;2023-12-29T16:06:54;7.90;65.50
7876;DHT22;69649;53.712;9.680;2023-12-29T16:09:20;7.80;65.20
7876;DHT22;69649;53.712;9.680;2023-12-29T16:11:46;7.80;65.70
7876;DHT22;69649;53.712;9.680;2023-12-29T16:14:14;7.80;65.40
7876;DHT22;69649;53.712;9.680;2023-12-29T16:16:39;7.80;65.60
7876;DHT22;69649;53.712;9.680;2023-12-29T16:19:06;7.80;66.00
7876;DHT22;69649;53.712;9.680;2023-12-29T16:21:36;7.70;65.80
7876;DHT22;69649;53.712;9.680;2023-12-29T16:24:03;7.60;66.00
7876;DHT22;69649;53.712;9.680;2023-12-29T16:26:29;7.60;66.10